sensor_id;sensor_type;location;lat;lon;timestamp;temperature;humidity
46816;DHT22;32787;53.316;8.670;2023-03-08T00:01:33;-3276.60;90.50
46816;DHT22;32787;53.316;8.670;2023-03-08T00:03:59;-3276.60;90.70
46816;DHT22;32787;53.316;8.670;2023-03-08T00:06:25;-3276.60;90.60
46816;DHT22;32787;53.316;8.670;2023-03-08T00:08:58;-3276.60;90.70
46816;DHT22;32787;53.316;8.670;2023-03-08T00:11:25;-3276.60;90.60
46816;DHT22;32787;53.316;8.670;2023-03-08T00:13:51;-3276.50;90.70
46816;DHT22;32787;53.316;8.670;2023-03-08T00:16:16;-3276.40;90.70
46816;DHT22;32787;53.316;8.670;2023-03-08T00:18:42;-3276.50;90.80
46816;DHT22;32787;53.316;8.670;2023-03-08T00:21:13;-3276.50;90.90
46816;DHT22;32787;53.316;8.670;2023-03-08T00:23:39;-3276.50;90.90
46816;DHT22;32787;53.316;8.670;2023-03-08T00:26:05;-3276.60;91.00
46816;DHT22;32787;53.316;8.670;2023-03-08T00:28:31;-3276.70;91.00
46816;DHT22;32787;53.316;8.670;2023-03-08T00:31:05;-3276.70;90.90
46816;DHT22;32787;53.316;8.670;2023-03-08T00:33:32;-3276.70;90.80
46816;DHT22;32787;53.316;8.670;2023-03-08T00:36:06;0.00;90.90
46816;DHT22;32787;53.316;8.670;2023-03-08T00:38:34;0.00;90.80
46816;DHT22;32787;53.316;8.670;2023-03-08T00:41:00;-3276.70;90.90
46816;DHT22;32787;53.316;8.670;2023-03-08T00:43:27;0.00;90.90
46816;DHT22;32787;53.316;8.670;2023-03-08T00:45:53;-3276.70;90.80
46816;DHT22;32787;53.316;8.670;2023-03-08T00:48:19;-3276.60;90.80
46816;DHT22;32787;53.316;8.670;2023-03-08T00:50:45;-3276.70;90.90
46816;DHT22;32787;53.316;8.670;2023-03-08T00:53:11;-3276.60;90.80
46816;DHT22;32787;53.316;8.670;2023-03-08T00:55:37;-3276.60;90.80
46816;DHT22;32787;53.316;8.670;2023-03-08T00:58:02;-3276.50;90.80
46816;DHT22;32787;53.316;8.670;2023-03-08T01:00:28;-3276.40;90.80
46816;DHT22;32787;53.316;8.670;2023-03-08T01:02:55;-3276.40;90.90
46816;DHT22;32787;53.316;8.670;2023-03-08T01:05:21;-3276.40;90.90
46816;DHT22;32787;53.316;8.670;2023-03-08T01:07:46;-3276.40;90.90
46816;DHT22;32787;53.316;8.670;2023-03-08T01:10:12;-3276.40;91.00
46816;DHT22;32787;53.316;8.670;2023-03-08T01:12:38;-3276.30;90.90
46816;DHT22;32787;53.316;8.670;2023-03-08T01:15:05;-3276.40;91.10
46816;DHT22;32787;53.316;8.670;2023-03-08T01:17:31;-3276.40;91.00
46816;DHT22;32787;53.316;8.670;2023-03-08T01:19:57;-3276.40;91.00
46816;DHT22;32787;53.316;8.670;2023-03-08T01:22:22;-3276.30;91.00
46816;DHT22;32787;53.316;8.670;2023-03-08T01:24:48;-3276.30;91.00
46816;DHT22;32787;53.316;8.670;2023-03-08T01:27:15;-3276.30;91.00
46816;DHT22;32787;53.316;8.670;2023-03-08T01:29:42;-3276.30;91.00
46816;DHT22;32787;53.316;8.670;2023-03-08T01:32:08;-3276.30;91.20
46816;DHT22;32787;53.316;8.670;2023-03-08T01:34:37;-3276.30;91.30
46816;DHT22;32787;53.316;8.670;2023-03-08T01:37:03;-3276.40;91.30
46816;DHT22;32787;53.316;8.670;2023-03-08T01:39:30;-3276.40;91.30
46816;DHT22;32787;53.316;8.670;2023-03-08T01:41:56;-3276.30;91.20
46816;DHT22;32787;53.316;8.670;2023-03-08T01:44:21;-3276.40;91.20
46816;DHT22;32787;53.316;8.670;2023-03-08T01:46:48;-3276.30;91.00
46816;DHT22;32787;53.316;8.670;2023-03-08T01:49:37;-3276.30;91.20
46816;DHT22;32787;53.316;8.670;2023-03-08T01:52:07;-3276.30;91.10
46816;DHT22;32787;53.316;8.670;2023-03-08T01:57:12;-3276.40;91.50
46816;DHT22;32787;53.316;8.670;2023-03-08T01:59:40;-3276.50;91.40
46816;DHT22;32787;53.316;8.670;2023-03-08T02:02:07;-3276.60;91.30
46816;DHT22;32787;53.316;8.670;2023-03-08T02:04:33;-3276.50;91.20
46816;DHT22;32787;53.316;8.670;2023-03-08T02:06:59;-3276.60;91.20
46816;DHT22;32787;53.316;8.670;2023-03-08T02:09:24;-3276.50;91.00
46816;DHT22;32787;53.316;8.670;2023-03-08T02:11:51;-3276.60;91.10
46816;DHT22;32787;53.316;8.670;2023-03-08T02:14:16;-3276.70;91.10
46816;DHT22;32787;53.316;8.670;2023-03-08T02:16:42;-3276.60;90.90
46816;DHT22;32787;53.316;8.670;2023-03-08T02:19:22;-3276.50;91.00
46816;DHT22;32787;53.316;8.670;2023-03-08T02:21:48;-3276.50;90.90
46816;DHT22;32787;53.316;8.670;2023-03-08T02:24:22;-3276.50;90.70
46816;DHT22;32787;53.316;8.670;2023-03-08T02:26:50;-3276.40;90.90
46816;DHT22;32787;53.316;8.670;2023-03-08T02:29:17;-3276.40;90.70
46816;DHT22;32787;53.316;8.670;2023-03-08T02:31:42;-3276.40;90.80
46816;DHT22;32787;53.316;8.670;2023-03-08T02:34:08;-3276.40;90.90
46816;DHT22;32787;53.316;8.670;2023-03-08T02:36:34;-3276.20;90.80
46816;DHT22;32787;53.316;8.670;2023-03-08T02:39:00;-3276.40;91.10
46816;DHT22;32787;53.316;8.670;2023-03-08T02:41:25;-3276.40;90.90
46816;DHT22;32787;53.316;8.670;2023-03-08T02:43:51;-3276.40;90.90
46816;DHT22;32787;53.316;8.670;2023-03-08T02:46:16;-3276.40;91.10
46816;DHT22;32787;53.316;8.670;2023-03-08T02:48:42;-3276.40;91.10
46816;DHT22;32787;53.316;8.670;2023-03-08T02:51:10;-3276.50;91.10
46816;DHT22;32787;53.316;8.670;2023-03-08T02:53:36;-3276.50;91.00
46816;DHT22;32787;53.316;8.670;2023-03-08T02:56:01;-3276.40;90.80
46816;DHT22;32787;53.316;8.670;2023-03-08T02:58:27;-3276.40;90.90
46816;DHT22;32787;53.316;8.670;2023-03-08T03:00:52;-3276.40;91.00
46816;DHT22;32787;53.316;8.670;2023-03-08T03:03:18;-3276.40;90.80
46816;DHT22;32787;53.316;8.670;2023-03-08T03:05:44;-3276.30;90.80
46816;DHT22;32787;53.316;8.670;2023-03-08T03:08:11;-3276.40;91.00
46816;DHT22;32787;53.316;8.670;2023-03-08T03:10:37;-3276.30;91.00
46816;DHT22;32787;53.316;8.670;2023-03-08T03:13:04;-3276.30;91.00
46816;DHT22;32787;53.316;8.670;2023-03-08T03:15:30;-3276.30;91.00
46816;DHT22;32787;53.316;8.670;2023-03-08T03:17:56;-3276.30;91.00
46816;DHT22;32787;53.316;8.670;2023-03-08T03:20:22;-3276.30;91.10
46816;DHT22;32787;53.316;8.670;2023-03-08T03:22:48;-3276.50;91.20
46816;DHT22;32787;53.316;8.670;2023-03-08T03:25:14;-3276.60;91.30
46816;DHT22;32787;53.316;8.670;2023-03-08T03:27:39;-3276.70;91.10
46816;DHT22;32787;53.316;8.670;2023-03-08T03:30:07;0.00;91.00
46816;DHT22;32787;53.316;8.670;2023-03-08T03:32:33;0.00;90.70
46816;DHT22;32787;53.316;8.670;2023-03-08T03:34:59;-3276.70;90.60
46816;DHT22;32787;53.316;8.670;2023-03-08T03:37:24;-3276.70;90.70
46816;DHT22;32787;53.316;8.670;2023-03-08T03:39:50;-3276.70;90.80
46816;DHT22;32787;53.316;8.670;2023-03-08T03:42:16;0.00;90.80
46816;DHT22;32787;53.316;8.670;2023-03-08T03:44:42;0.00;90.80
46816;DHT22;32787;53.316;8.670;2023-03-08T03:47:07;0.00;90.80
46816;DHT22;32787;53.316;8.670;2023-03-08T03:49:33;0.10;90.70
46816;DHT22;32787;53.316;8.670;2023-03-08T03:51:59;0.10;90.60
46816;DHT22;32787;53.316;8.670;2023-03-08T03:54:25;0.10;90.60
46816;DHT22;32787;53.316;8.670;2023-03-08T03:56:50;0.10;90.50
46816;DHT22;32787;53.316;8.670;2023-03-08T03:59:16;0.10;90.60
46816;DHT22;32787;53.316;8.670;2023-03-08T04:01:42;0.00;90.50
46816;DHT22;32787;53.316;8.670;2023-03-08T04:04:09;0.10;90.70
46816;DHT22;32787;53.316;8.670;2023-03-08T04:06:35;0.10;90.50
46816;DHT22;32787;53.316;8.670;2023-03-08T04:09:04;0.10;90.50
46816;DHT22;32787;53.316;8.670;2023-03-08T04:11:38;0.00;90.60
46816;DHT22;32787;53.316;8.670;2023-03-08T04:14:04;0.20;90.70
46816;DHT22;32787;53.316;8.670;2023-03-08T04:16:35;0.20;90.50
46816;DHT22;32787;53.316;8.670;2023-03-08T04:19:06;0.20;90.30
46816;DHT22;32787;53.316;8.670;2023-03-08T04:21:32;0.20;90.50
46816;DHT22;32787;53.316;8.670;2023-03-08T04:23:58;0.20;90.40
46816;DHT22;32787;53.316;8.670;2023-03-08T04:26:24;0.10;90.30
46816;DHT22;32787;53.316;8.670;2023-03-08T04:28:50;0.00;90.30
46816;DHT22;32787;53.316;8.670;2023-03-08T04:31:28;0.20;90.40
46816;DHT22;32787;53.316;8.670;2023-03-08T04:33:54;0.10;90.30
46816;DHT22;32787;53.316;8.670;2023-03-08T04:36:20;0.20;90.50
46816;DHT22;32787;53.316;8.670;2023-03-08T04:38:47;0.20;90.50
46816;DHT22;32787;53.316;8.670;2023-03-08T04:41:13;0.00;90.10
46816;DHT22;32787;53.316;8.670;2023-03-08T04:43:51;0.00;90.20
46816;DHT22;32787;53.316;8.670;2023-03-08T04:46:19;0.10;90.50
46816;DHT22;32787;53.316;8.670;2023-03-08T04:48:45;0.00;90.20
46816;DHT22;32787;53.316;8.670;2023-03-08T04:51:13;0.00;90.50
46816;DHT22;32787;53.316;8.670;2023-03-08T04:53:39;0.20;90.50
46816;DHT22;32787;53.316;8.670;2023-03-08T04:56:07;0.10;90.20
46816;DHT22;32787;53.316;8.670;2023-03-08T04:58:34;0.00;90.20
46816;DHT22;32787;53.316;8.670;2023-03-08T05:01:06;0.10;90.50
46816;DHT22;32787;53.316;8.670;2023-03-08T05:03:32;0.10;90.30
46816;DHT22;32787;53.316;8.670;2023-03-08T05:05:58;0.10;90.20
46816;DHT22;32787;53.316;8.670;2023-03-08T05:08:23;0.00;90.30
46816;DHT22;32787;53.316;8.670;2023-03-08T05:10:54;0.00;90.40
46816;DHT22;32787;53.316;8.670;2023-03-08T05:13:22;0.00;90.60
46816;DHT22;32787;53.316;8.670;2023-03-08T05:15:48;0.10;90.10
46816;DHT22;32787;53.316;8.670;2023-03-08T05:18:13;0.10;90.20
46816;DHT22;32787;53.316;8.670;2023-03-08T05:20:39;0.00;90.00
46816;DHT22;32787;53.316;8.670;2023-03-08T05:23:04;0.00;90.30
46816;DHT22;32787;53.316;8.670;2023-03-08T05:25:30;-3276.60;90.00
46816;DHT22;32787;53.316;8.670;2023-03-08T05:27:56;0.00;90.20
46816;DHT22;32787;53.316;8.670;2023-03-08T05:30:22;-3276.60;90.10
46816;DHT22;32787;53.316;8.670;2023-03-08T05:32:47;-3276.40;90.40
46816;DHT22;32787;53.316;8.670;2023-03-08T05:35:13;-3276.40;90.40
46816;DHT22;32787;53.316;8.670;2023-03-08T05:37:38;-3276.20;90.60
46816;DHT22;32787;53.316;8.670;2023-03-08T05:40:05;-3276.00;90.70
46816;DHT22;32787;53.316;8.670;2023-03-08T05:42:31;-3276.20;90.90
46816;DHT22;32787;53.316;8.670;2023-03-08T05:44:57;-3276.00;90.70
46816;DHT22;32787;53.316;8.670;2023-03-08T05:47:23;-3276.00;90.90
46816;DHT22;32787;53.316;8.670;2023-03-08T05:49:50;-3276.00;91.00
46816;DHT22;32787;53.316;8.670;2023-03-08T05:52:15;-3276.10;91.20
46816;DHT22;32787;53.316;8.670;2023-03-08T05:54:41;-3276.20;91.20
46816;DHT22;32787;53.316;8.670;2023-03-08T05:57:07;-3276.00;90.90
46816;DHT22;32787;53.316;8.670;2023-03-08T05:59:32;-3275.80;91.10
46816;DHT22;32787;53.316;8.670;2023-03-08T06:01:58;-3275.80;91.20
46816;DHT22;32787;53.316;8.670;2023-03-08T06:04:24;-3275.90;91.30
46816;DHT22;32787;53.316;8.670;2023-03-08T06:06:49;-3276.00;91.20
46816;DHT22;32787;53.316;8.670;2023-03-08T06:09:15;-3276.00;91.30
46816;DHT22;32787;53.316;8.670;2023-03-08T06:11:40;-3276.10;91.30
46816;DHT22;32787;53.316;8.670;2023-03-08T06:14:06;-3276.00;91.10
46816;DHT22;32787;53.316;8.670;2023-03-08T06:16:31;-3275.80;91.00
46816;DHT22;32787;53.316;8.670;2023-03-08T06:18:57;-3275.80;91.40
46816;DHT22;32787;53.316;8.670;2023-03-08T06:21:23;-3275.70;91.30
46816;DHT22;32787;53.316;8.670;2023-03-08T06:23:49;-3276.00;91.40
46816;DHT22;32787;53.316;8.670;2023-03-08T06:26:15;-3275.80;91.30
46816;DHT22;32787;53.316;8.670;2023-03-08T06:28:41;-3275.60;91.30
46816;DHT22;32787;53.316;8.670;2023-03-08T06:31:10;-3275.60;91.60
46816;DHT22;32787;53.316;8.670;2023-03-08T06:33:36;-3275.50;91.70
46816;DHT22;32787;53.316;8.670;2023-03-08T06:36:07;-3275.70;92.00
46816;DHT22;32787;53.316;8.670;2023-03-08T06:38:35;-3275.80;92.10
46816;DHT22;32787;53.316;8.670;2023-03-08T06:41:02;-3275.80;92.10
46816;DHT22;32787;53.316;8.670;2023-03-08T06:43:28;-3275.90;92.00
46816;DHT22;32787;53.316;8.670;2023-03-08T06:45:54;-3275.90;91.90
46816;DHT22;32787;53.316;8.670;2023-03-08T06:48:20;-3276.10;92.10
46816;DHT22;32787;53.316;8.670;2023-03-08T06:50:46;-3276.10;91.90
46816;DHT22;32787;53.316;8.670;2023-03-08T06:53:12;-3276.10;91.90
46816;DHT22;32787;53.316;8.670;2023-03-08T06:55:39;-3276.40;92.00
46816;DHT22;32787;53.316;8.670;2023-03-08T06:58:05;-3276.60;91.50
46816;DHT22;32787;53.316;8.670;2023-03-08T07:00:32;-3276.70;91.30
46816;DHT22;32787;53.316;8.670;2023-03-08T07:02:58;0.00;91.10
46816;DHT22;32787;53.316;8.670;2023-03-08T07:05:24;0.00;91.00
46816;DHT22;32787;53.316;8.670;2023-03-08T07:07:50;0.00;90.70
46816;DHT22;32787;53.316;8.670;2023-03-08T07:10:16;0.00;90.70
46816;DHT22;32787;53.316;8.670;2023-03-08T07:12:44;0.00;90.80
46816;DHT22;32787;53.316;8.670;2023-03-08T07:15:13;0.10;90.90
46816;DHT22;32787;53.316;8.670;2023-03-08T07:17:43;0.10;90.60
46816;DHT22;32787;53.316;8.670;2023-03-08T07:20:10;0.10;90.60
46816;DHT22;32787;53.316;8.670;2023-03-08T07:22:37;0.00;90.50
46816;DHT22;32787;53.316;8.670;2023-03-08T07:25:03;0.00;90.80
46816;DHT22;32787;53.316;8.670;2023-03-08T07:27:28;0.20;90.80
46816;DHT22;32787;53.316;8.670;2023-03-08T07:29:54;0.20;90.70
46816;DHT22;32787;53.316;8.670;2023-03-08T07:32:19;0.20;90.70
46816;DHT22;32787;53.316;8.670;2023-03-08T07:34:45;0.40;90.70
46816;DHT22;32787;53.316;8.670;2023-03-08T07:37:12;0.70;90.40
46816;DHT22;32787;53.316;8.670;2023-03-08T07:39:38;0.90;89.70
46816;DHT22;32787;53.316;8.670;2023-03-08T07:42:04;0.90;89.40
46816;DHT22;32787;53.316;8.670;2023-03-08T07:44:30;1.00;89.30
46816;DHT22;32787;53.316;8.670;2023-03-08T07:46:55;1.00;88.90
46816;DHT22;32787;53.316;8.670;2023-03-08T07:49:21;1.00;89.00
46816;DHT22;32787;53.316;8.670;2023-03-08T07:51:48;1.10;88.80
46816;DHT22;32787;53.316;8.670;2023-03-08T07:54:14;1.20;88.60
46816;DHT22;32787;53.316;8.670;2023-03-08T07:56:39;1.10;88.30
46816;DHT22;32787;53.316;8.670;2023-03-08T07:59:05;1.20;88.50
46816;DHT22;32787;53.316;8.670;2023-03-08T08:01:31;1.20;88.20
46816;DHT22;32787;53.316;8.670;2023-03-08T08:03:58;1.10;88.60
46816;DHT22;32787;53.316;8.670;2023-03-08T08:06:24;1.10;87.90
46816;DHT22;32787;53.316;8.670;2023-03-08T08:08:50;1.30;88.30
46816;DHT22;32787;53.316;8.670;2023-03-08T08:11:17;1.50;88.00
46816;DHT22;32787;53.316;8.670;2023-03-08T08:13:44;1.50;87.50
46816;DHT22;32787;53.316;8.670;2023-03-08T08:16:12;1.50;87.60
46816;DHT22;32787;53.316;8.670;2023-03-08T08:18:38;1.60;87.40
46816;DHT22;32787;53.316;8.670;2023-03-08T08:21:12;1.50;87.40
46816;DHT22;32787;53.316;8.670;2023-03-08T08:23:39;1.60;87.50
46816;DHT22;32787;53.316;8.670;2023-03-08T08:26:11;1.90;87.40
46816;DHT22;32787;53.316;8.670;2023-03-08T08:28:39;2.10;86.80
46816;DHT22;32787;53.316;8.670;2023-03-08T08:31:07;2.20;86.20
46816;DHT22;32787;53.316;8.670;2023-03-08T08:33:34;2.40;85.40
46816;DHT22;32787;53.316;8.670;2023-03-08T08:36:06;2.20;85.30
46816;DHT22;32787;53.316;8.670;2023-03-08T08:38:32;2.20;84.90
46816;DHT22;32787;53.316;8.670;2023-03-08T08:41:02;2.20;86.10
46816;DHT22;32787;53.316;8.670;2023-03-08T08:43:29;2.40;85.60
46816;DHT22;32787;53.316;8.670;2023-03-08T08:45:56;2.60;85.20
46816;DHT22;32787;53.316;8.670;2023-03-08T08:48:23;2.60;84.50
46816;DHT22;32787;53.316;8.670;2023-03-08T08:50:50;2.50;84.60
46816;DHT22;32787;53.316;8.670;2023-03-08T08:53:16;2.60;84.90
46816;DHT22;32787;53.316;8.670;2023-03-08T08:55:42;2.50;84.60
46816;DHT22;32787;53.316;8.670;2023-03-08T08:58:08;2.50;85.50
46816;DHT22;32787;53.316;8.670;2023-03-08T09:00:34;2.60;84.70
46816;DHT22;32787;53.316;8.670;2023-03-08T09:03:01;2.50;84.70
46816;DHT22;32787;53.316;8.670;2023-03-08T09:05:27;2.40;85.10
46816;DHT22;32787;53.316;8.670;2023-03-08T09:07:54;2.60;85.50
46816;DHT22;32787;53.316;8.670;2023-03-08T09:10:20;2.70;84.80
46816;DHT22;32787;53.316;8.670;2023-03-08T09:12:46;2.80;84.70
46816;DHT22;32787;53.316;8.670;2023-03-08T09:15:12;2.90;84.10
46816;DHT22;32787;53.316;8.670;2023-03-08T09:17:38;2.90;84.30
46816;DHT22;32787;53.316;8.670;2023-03-08T09:20:05;2.90;84.30
46816;DHT22;32787;53.316;8.670;2023-03-08T09:22:31;2.90;84.40
46816;DHT22;32787;53.316;8.670;2023-03-08T09:24:57;2.90;84.40
46816;DHT22;32787;53.316;8.670;2023-03-08T09:27:23;2.90;83.90
46816;DHT22;32787;53.316;8.670;2023-03-08T09:29:48;2.60;83.60
46816;DHT22;32787;53.316;8.670;2023-03-08T09:32:14;2.40;85.30
46816;DHT22;32787;53.316;8.670;2023-03-08T09:34:39;2.40;85.50
46816;DHT22;32787;53.316;8.670;2023-03-08T09:37:05;2.60;84.20
46816;DHT22;32787;53.316;8.670;2023-03-08T09:39:32;2.80;83.90
46816;DHT22;32787;53.316;8.670;2023-03-08T09:42:00;2.80;83.40
46816;DHT22;32787;53.316;8.670;2023-03-08T09:50:08;2.40;84.90
46816;DHT22;32787;53.316;8.670;2023-03-08T09:55:21;2.60;83.90
46816;DHT22;32787;53.316;8.670;2023-03-08T09:57:59;2.80;83.90
46816;DHT22;32787;53.316;8.670;2023-03-08T10:00:35;3.00;82.80
46816;DHT22;32787;53.316;8.670;2023-03-08T10:03:22;3.40;82.20
46816;DHT22;32787;53.316;8.670;2023-03-08T10:08:37;3.20;82.10
46816;DHT22;32787;53.316;8.670;2023-03-08T10:11:17;2.90;81.90
46816;DHT22;32787;53.316;8.670;2023-03-08T10:13:50;2.50;83.30
46816;DHT22;32787;53.316;8.670;2023-03-08T10:16:27;2.80;84.20
46816;DHT22;32787;53.316;8.670;2023-03-08T10:21:35;3.10;82.60
46816;DHT22;32787;53.316;8.670;2023-03-08T10:24:15;2.90;82.20
46816;DHT22;32787;53.316;8.670;2023-03-08T10:26:43;2.80;82.90
46816;DHT22;32787;53.316;8.670;2023-03-08T10:29:12;3.00;83.50
46816;DHT22;32787;53.316;8.670;2023-03-08T10:31:40;3.00;82.90
46816;DHT22;32787;53.316;8.670;2023-03-08T10:34:21;3.20;83.10
46816;DHT22;32787;53.316;8.670;2023-03-08T10:36:52;3.30;82.20
46816;DHT22;32787;53.316;8.670;2023-03-08T10:39:21;3.30;81.90
46816;DHT22;32787;53.316;8.670;2023-03-08T10:41:49;3.40;81.80
46816;DHT22;32787;53.316;8.670;2023-03-08T10:46:54;3.80;81.60
46816;DHT22;32787;53.316;8.670;2023-03-08T10:49:22;3.90;80.20
46816;DHT22;32787;53.316;8.670;2023-03-08T10:51:54;3.80;80.80
46816;DHT22;32787;53.316;8.670;2023-03-08T10:54:20;4.20;79.90
46816;DHT22;32787;53.316;8.670;2023-03-08T10:56:56;3.90;79.80
46816;DHT22;32787;53.316;8.670;2023-03-08T10:59:30;3.70;79.60
46816;DHT22;32787;53.316;8.670;2023-03-08T11:02:14;3.40;80.60
46816;DHT22;32787;53.316;8.670;2023-03-08T11:04:57;3.40;81.70
46816;DHT22;32787;53.316;8.670;2023-03-08T11:07:31;3.60;81.10
46816;DHT22;32787;53.316;8.670;2023-03-08T11:10:24;3.50;80.60
46816;DHT22;32787;53.316;8.670;2023-03-08T11:13:20;3.70;81.30
46816;DHT22;32787;53.316;8.670;2023-03-08T11:16:03;3.80;80.60
46816;DHT22;32787;53.316;8.670;2023-03-08T11:35:23;3.60;80.70
46816;DHT22;32787;53.316;8.670;2023-03-08T11:40:24;4.10;79.80
46816;DHT22;32787;53.316;8.670;2023-03-08T11:46:00;4.30;78.50
46816;DHT22;32787;53.316;8.670;2023-03-08T11:51:43;3.90;79.50
46816;DHT22;32787;53.316;8.670;2023-03-08T11:57:03;3.70;80.70
46816;DHT22;32787;53.316;8.670;2023-03-08T11:59:43;3.40;80.00
46816;DHT22;32787;53.316;8.670;2023-03-08T12:02:21;3.30;80.70
46816;DHT22;32787;53.316;8.670;2023-03-08T12:07:45;3.70;79.70
46816;DHT22;32787;53.316;8.670;2023-03-08T12:10:19;3.80;78.80
46816;DHT22;32787;53.316;8.670;2023-03-08T12:13:03;3.70;79.70
46816;DHT22;32787;53.316;8.670;2023-03-08T12:18:36;4.10;79.00
46816;DHT22;32787;53.316;8.670;2023-03-08T12:26:28;3.90;78.40
46816;DHT22;32787;53.316;8.670;2023-03-08T12:29:02;4.00;78.00
46816;DHT22;32787;53.316;8.670;2023-03-08T12:31:38;4.40;77.70
46816;DHT22;32787;53.316;8.670;2023-03-08T12:34:13;4.20;76.00
46816;DHT22;32787;53.316;8.670;2023-03-08T12:36:47;4.30;76.30
46816;DHT22;32787;53.316;8.670;2023-03-08T12:39:42;4.70;77.10
46816;DHT22;32787;53.316;8.670;2023-03-08T12:42:14;4.90;74.80
46816;DHT22;32787;53.316;8.670;2023-03-08T12:44:41;4.80;74.10
46816;DHT22;32787;53.316;8.670;2023-03-08T12:49:37;4.70;73.60
46816;DHT22;32787;53.316;8.670;2023-03-08T12:52:22;5.10;74.90
46816;DHT22;32787;53.316;8.670;2023-03-08T12:57:32;5.30;73.00
46816;DHT22;32787;53.316;8.670;2023-03-08T13:00:05;5.40;73.00
46816;DHT22;32787;53.316;8.670;2023-03-08T13:02:34;5.40;71.10
46816;DHT22;32787;53.316;8.670;2023-03-08T13:07:33;4.90;69.20
46816;DHT22;32787;53.316;8.670;2023-03-08T13:10:23;4.90;66.80
46816;DHT22;32787;53.316;8.670;2023-03-08T13:15:33;4.80;67.20
46816;DHT22;32787;53.316;8.670;2023-03-08T13:28:18;4.80;68.50
46816;DHT22;32787;53.316;8.670;2023-03-08T13:30:51;4.90;69.70
46816;DHT22;32787;53.316;8.670;2023-03-08T13:33:20;4.90;68.60
46816;DHT22;32787;53.316;8.670;2023-03-08T13:36:20;4.90;67.00
46816;DHT22;32787;53.316;8.670;2023-03-08T13:38:56;5.30;65.90
46816;DHT22;32787;53.316;8.670;2023-03-08T13:41:39;5.40;65.30
46816;DHT22;32787;53.316;8.670;2023-03-08T13:44:22;5.10;66.40
46816;DHT22;32787;53.316;8.670;2023-03-08T13:46:51;4.70;66.10
46816;DHT22;32787;53.316;8.670;2023-03-08T13:49:33;4.90;67.60
46816;DHT22;32787;53.316;8.670;2023-03-08T13:52:01;5.00;68.10
46816;DHT22;32787;53.316;8.670;2023-03-08T13:54:36;4.90;68.40
46816;DHT22;32787;53.316;8.670;2023-03-08T13:57:15;4.70;69.00
46816;DHT22;32787;53.316;8.670;2023-03-08T13:59:48;4.60;68.70
46816;DHT22;32787;53.316;8.670;2023-03-08T14:02:26;4.80;66.90
46816;DHT22;32787;53.316;8.670;2023-03-08T14:04:52;4.70;67.20
46816;DHT22;32787;53.316;8.670;2023-03-08T14:07:28;4.70;67.20
46816;DHT22;32787;53.316;8.670;2023-03-08T14:09:55;4.70;68.00
46816;DHT22;32787;53.316;8.670;2023-03-08T14:12:29;4.80;67.40
46816;DHT22;32787;53.316;8.670;2023-03-08T14:14:58;4.70;67.50
46816;DHT22;32787;53.316;8.670;2023-03-08T14:17:26;4.70;68.00
46816;DHT22;32787;53.316;8.670;2023-03-08T14:19:57;4.70;70.30
46816;DHT22;32787;53.316;8.670;2023-03-08T14:22:26;4.90;70.20
46816;DHT22;32787;53.316;8.670;2023-03-08T14:25:00;4.70;68.70
46816;DHT22;32787;53.316;8.670;2023-03-08T14:27:37;4.60;69.00
46816;DHT22;32787;53.316;8.670;2023-03-08T14:30:21;4.70;68.10
46816;DHT22;32787;53.316;8.670;2023-03-08T14:33:19;4.40;67.40
46816;DHT22;32787;53.316;8.670;2023-03-08T14:35:52;4.40;68.80
46816;DHT22;32787;53.316;8.670;2023-03-08T14:38:27;4.40;70.20
46816;DHT22;32787;53.316;8.670;2023-03-08T14:40:54;4.10;69.60
46816;DHT22;32787;53.316;8.670;2023-03-08T14:43:23;4.50;69.00
46816;DHT22;32787;53.316;8.670;2023-03-08T14:48:32;4.50;71.30
46816;DHT22;32787;53.316;8.670;2023-03-08T14:53:59;4.10;71.30
46816;DHT22;32787;53.316;8.670;2023-03-08T14:56:27;4.00;71.20
46816;DHT22;32787;53.316;8.670;2023-03-08T14:58:53;4.10;70.90
46816;DHT22;32787;53.316;8.670;2023-03-08T15:01:34;4.10;70.70
46816;DHT22;32787;53.316;8.670;2023-03-08T15:04:00;4.30;70.20
46816;DHT22;32787;53.316;8.670;2023-03-08T15:06:29;4.20;68.60
46816;DHT22;32787;53.316;8.670;2023-03-08T15:08:56;4.10;69.70
46816;DHT22;32787;53.316;8.670;2023-03-08T15:11:22;4.30;71.00
46816;DHT22;32787;53.316;8.670;2023-03-08T15:13:49;4.20;71.80
46816;DHT22;32787;53.316;8.670;2023-03-08T15:16:15;4.20;71.40
46816;DHT22;32787;53.316;8.670;2023-03-08T15:18:41;4.20;70.80
46816;DHT22;32787;53.316;8.670;2023-03-08T15:21:13;4.00;72.50
46816;DHT22;32787;53.316;8.670;2023-03-08T15:23:41;4.00;73.20
46816;DHT22;32787;53.316;8.670;2023-03-08T15:26:13;4.10;72.60
46816;DHT22;32787;53.316;8.670;2023-03-08T15:28:41;4.40;72.10
46816;DHT22;32787;53.316;8.670;2023-03-08T15:31:07;4.30;71.20
46816;DHT22;32787;53.316;8.670;2023-03-08T15:33:33;4.20;71.60
46816;DHT22;32787;53.316;8.670;2023-03-08T15:35:59;4.30;72.30
46816;DHT22;32787;53.316;8.670;2023-03-08T15:38:24;4.00;72.40
46816;DHT22;32787;53.316;8.670;2023-03-08T15:40:50;3.90;71.80
46816;DHT22;32787;53.316;8.670;2023-03-08T15:43:15;3.90;71.50
46816;DHT22;32787;53.316;8.670;2023-03-08T15:45:41;3.90;71.50
46816;DHT22;32787;53.316;8.670;2023-03-08T15:48:17;3.80;71.60
46816;DHT22;32787;53.316;8.670;2023-03-08T15:50:43;3.80;71.30
46816;DHT22;32787;53.316;8.670;2023-03-08T15:53:10;3.70;71.80
46816;DHT22;32787;53.316;8.670;2023-03-08T15:55:37;3.70;72.50
46816;DHT22;32787;53.316;8.670;2023-03-08T15:58:03;3.60;72.30
46816;DHT22;32787;53.316;8.670;2023-03-08T16:00:29;3.70;72.70
46816;DHT22;32787;53.316;8.670;2023-03-08T16:02:55;3.80;71.70
46816;DHT22;32787;53.316;8.670;2023-03-08T16:05:21;3.70;73.00
46816;DHT22;32787;53.316;8.670;2023-03-08T16:07:57;3.70;73.30
46816;DHT22;32787;53.316;8.670;2023-03-08T16:10:25;3.70;73.00
46816;DHT22;32787;53.316;8.670;2023-03-08T16:12:51;3.70;72.20
46816;DHT22;32787;53.316;8.670;2023-03-08T16:15:17;3.60;72.30
46816;DHT22;32787;53.316;8.670;2023-03-08T16:17:43;3.60;72.50
46816;DHT22;32787;53.316;8.670;2023-03-08T16:20:10;3.40;73.60
46816;DHT22;32787;53.316;8.670;2023-03-08T16:22:36;3.40;74.60
46816;DHT22;32787;53.316;8.670;2023-03-08T16:25:02;3.30;75.00
46816;DHT22;32787;53.316;8.670;2023-03-08T16:27:29;3.20;75.80
46816;DHT22;32787;53.316;8.670;2023-03-08T16:29:59;3.20;76.00
46816;DHT22;32787;53.316;8.670;2023-03-08T16:32:25;3.20;75.80
46816;DHT22;32787;53.316;8.670;2023-03-08T16:34:56;3.10;75.60
46816;DHT22;32787;53.316;8.670;2023-03-08T16:37:22;3.00;76.40
46816;DHT22;32787;53.316;8.670;2023-03-08T16:39:48;3.10;75.90
46816;DHT22;32787;53.316;8.670;2023-03-08T16:42:14;3.00;76.70
46816;DHT22;32787;53.316;8.670;2023-03-08T16:44:41;3.00;76.90
46816;DHT22;32787;53.316;8.670;2023-03-08T16:47:11;3.00;77.20
46816;DHT22;32787;53.316;8.670;2023-03-08T16:49:37;3.00;76.90
46816;DHT22;32787;53.316;8.670;2023-03-08T16:52:03;3.00;77.20
46816;DHT22;32787;53.316;8.670;2023-03-08T16:54:29;2.90;77.40
46816;DHT22;32787;53.316;8.670;2023-03-08T16:56:55;2.90;77.90
46816;DHT22;32787;53.316;8.670;2023-03-08T16:59:21;2.90;78.30
46816;DHT22;32787;53.316;8.670;2023-03-08T17:01:46;2.80;79.10